Alton, TX

5:39 AM CDT on April 01, 2015 (GMT -0500)
Val's Kountry Corral | | Change Station
CLOSE
Current Station
Personal Weather Station
Location: Mission, TX
Elevation: 135 ft
Nearby Weather Stations

Elev 135 ft 26.21 °N, 98.37 °W | Updated 4 minutes ago

Overcast
Overcast
71.1 °F
Feels Like 71.1 °F
N
3.1
Wind Variable Wind from NE

Today
High -- | Low -- °F
--% Chance of Precip.
Yesterday
High -- | Low -- °F
Precip. -- in
7:24 AM 7:50 PM
Waxing Gibbous, 92% visible
Pressure 29.88 in
Visibility 10.0 miles
Clouds Mostly Cloudy 900 ft
Dew Point 70 °F
Humidity 97%
Rainfall 0.00 in
Snow Depth Not available.
UV 0 out of 12
Pollen 10.10 out of 12
Air Quality Not available.
Flu Activity Not available.
SPECI KMFE 011007Z 15013KT 10SM BKN009 23/20 A2988 RMK AO2 T02280200

More Conditions Fewer Conditions

Pressure 29.88 in
Visibility 10.0 miles
Clouds Mostly Cloudy 900 ft
Dew Point 70 °F
Humidity 97%
Rainfall 0.00 in
Snow Depth Not available.
UV 0 out of 12
Pollen 10.10 out of 12
Air Quality Not available.
Flu Activity Not available.
SPECI KMFE 011007Z 15013KT 10SM BKN009 23/20 A2988 RMK AO2 T02280200

More Conditions Fewer Conditions

Nowcast | as of 4:55 am CDT on April 1, 2015

Through 7 am...isolated showers and thunderstorms will affect deep south Texas and the Rio Grande Valley. Movement of the precipitation will be to the east-northeast at around 40 mph. Residents can expect a trace to a couple hundredths of an inch of rainfall as the showers and thunderstorms pass overhead.

×

10-Day Weather Forecast

Almanac

Astronomy

Apr. 01, 2015 Rise Set
Actual Time
Civil Twilight
Nautical Twilight
Astronomical Twilight
Moon
Length of Visible Light
Length of Day
Tomorrow will be .
, % of the Moon is Illuminated

Today's Extremes

State Highs State Lows

Community

WunderPhotos

Upload Photos

1,809,934 photos uploaded!

WunderBlogs® & News

Nearby

Air Quality

  Air Quality AQ Index Pollutant
Not available.

Snow Depth

Station Depth Elevation

Earthquake Activity

City Distance Mag. Time & Date
Minimum magnitude displayed is 2.5.

Coastal Water Temperatures

Place Temperature

Stations

Nearby Weather Stations

Station Location Temp. Windchill Dew Point Humidity Wind Precip. Elev Updated Type